createdAt,value
2022-12-29T00:01:43.628Z,72.34
2022-12-29T00:04:15.312Z,72.73
2022-12-29T00:06:44.074Z,72.52
2022-12-29T00:09:14.636Z,72.76
2022-12-29T00:11:41.717Z,73.04
2022-12-29T00:14:30.817Z,73.00
2022-12-29T00:16:58.128Z,73.47
2022-12-29T00:19:44.158Z,73.74
2022-12-29T00:22:31.075Z,73.63
2022-12-29T00:25:10.085Z,73.31
2022-12-29T00:27:55.593Z,73.76
2022-12-29T00:30:42.594Z,73.42
2022-12-29T00:33:36.445Z,73.55
2022-12-29T00:36:08.303Z,73.79
2022-12-29T00:38:59.648Z,73.43
2022-12-29T00:41:45.001Z,73.55
2022-12-29T00:44:13.755Z,73.84
2022-12-29T00:46:43.140Z,73.83
2022-12-29T00:49:31.145Z,73.61
2022-12-29T00:52:09.259Z,74.15
2022-12-29T00:54:41.209Z,73.40
2022-12-29T00:57:10.706Z,74.17
2022-12-29T00:59:39.471Z,73.60
2022-12-29T01:02:06.967Z,73.85
2022-12-29T01:04:34.491Z,73.83
2022-12-29T01:07:01.522Z,74.02
2022-12-29T01:09:47.446Z,74.47
2022-12-29T01:12:14.716Z,74.00
2022-12-29T01:14:41.901Z,74.18
2022-12-29T01:17:08.848Z,74.00
2022-12-29T01:19:35.830Z,74.12
2022-12-29T01:22:02.935Z,74.81
2022-12-29T01:24:29.903Z,74.43
2022-12-29T01:26:56.729Z,74.32
2022-12-29T01:29:24.016Z,74.34
2022-12-29T01:31:51.283Z,74.05
2022-12-29T01:34:18.880Z,74.90
2022-12-29T01:36:46.035Z,74.54
2022-12-29T01:39:14.393Z,74.70
2022-12-29T01:41:41.649Z,75.06
2022-12-29T01:44:45.568Z,74.65
2022-12-29T01:47:12.804Z,75.43
2022-12-29T01:49:39.857Z,75.36
2022-12-29T01:52:09.152Z,75.40
2022-12-29T01:54:48.154Z,75.13
2022-12-29T01:57:26.154Z,75.32
2022-12-29T02:00:11.874Z,75.98
2022-12-29T02:02:49.101Z,75.92
2022-12-29T02:05:30.240Z,75.49
2022-12-29T02:07:57.706Z,75.80
2022-12-29T02:10:27.448Z,75.76
2022-12-29T02:12:55.473Z,76.31
2022-12-29T02:15:35.711Z,76.07
2022-12-29T02:18:05.286Z,76.72
2022-12-29T02:20:50.428Z,77.07
2022-12-29T02:23:38.495Z,76.19
2022-12-29T02:26:36.210Z,76.62
2022-12-29T02:29:40.563Z,77.26
2022-12-29T02:32:27.419Z,76.37
2022-12-29T02:35:11.563Z,76.94
2022-12-29T02:38:15.465Z,76.72
2022-12-29T02:40:48.248Z,76.47
2022-12-29T02:43:27.931Z,76.93
2022-12-29T02:46:01.694Z,76.15
2022-12-29T02:48:48.925Z,76.63
2022-12-29T02:51:21.936Z,77.20
2022-12-29T02:54:08.413Z,77.31
2022-12-29T02:56:35.457Z,76.94
2022-12-29T02:59:02.905Z,77.18
2022-12-29T03:02:02.513Z,77.03
2022-12-29T03:04:56.538Z,76.71
2022-12-29T03:07:41.245Z,77.38
2022-12-29T03:10:13.948Z,77.17
2022-12-29T03:13:21.978Z,76.91
2022-12-29T03:16:06.383Z,76.83
2022-12-29T03:19:15.929Z,77.50
2022-12-29T03:22:04.683Z,77.46
2022-12-29T03:24:42.977Z,77.52
2022-12-29T03:27:14.918Z,77.69
2022-12-29T03:29:54.367Z,77.83
2022-12-29T03:32:29.775Z,78.80
2022-12-29T03:34:59.699Z,80.14
2022-12-29T03:37:32.191Z,81.50
2022-12-29T03:40:00.130Z,81.97
2022-12-29T03:42:32.297Z,82.17
2022-12-29T03:44:59.283Z,82.60
2022-12-29T03:47:27.193Z,81.68
2022-12-29T03:49:54.625Z,80.25
2022-12-29T03:52:22.083Z,81.37
2022-12-29T03:54:51.000Z,79.98
2022-12-29T03:57:18.020Z,79.23
2022-12-29T03:59:55.868Z,80.92
2022-12-29T04:02:23.400Z,79.98
2022-12-29T04:04:50.773Z,79.60
2022-12-29T04:07:18.164Z,79.11
2022-12-29T04:09:45.258Z,78.46
2022-12-29T04:12:18.149Z,78.07
2022-12-29T04:14:45.283Z,77.49
2022-12-29T04:17:12.549Z,76.99
2022-12-29T04:19:41.002Z,77.69
2022-12-29T04:22:08.228Z,76.83
2022-12-29T04:24:35.994Z,76.71
2022-12-29T04:27:03.835Z,75.80
2022-12-29T04:29:41.751Z,76.24
2022-12-29T04:32:27.143Z,79.23
2022-12-29T04:34:55.702Z,78.26
2022-12-29T04:37:22.811Z,77.56
2022-12-29T04:39:49.877Z,77.23
2022-12-29T04:42:17.567Z,78.14
2022-12-29T04:44:46.137Z,78.11
2022-12-29T04:47:19.101Z,77.70
2022-12-29T04:49:55.018Z,77.98
2022-12-29T04:52:42.161Z,77.24
2022-12-29T04:55:11.326Z,76.66
2022-12-29T04:57:38.674Z,77.92
2022-12-29T05:00:07.630Z,77.67
2022-12-29T05:02:38.061Z,77.39
2022-12-29T05:05:06.276Z,76.96
2022-12-29T05:07:35.495Z,76.80
2022-12-29T05:10:02.394Z,77.45
2022-12-29T05:12:34.947Z,76.58
2022-12-29T05:15:03.909Z,77.27
2022-12-29T05:18:17.800Z,77.07
2022-12-29T05:20:46.484Z,76.92
2022-12-29T05:23:13.575Z,77.24
2022-12-29T05:25:41.899Z,78.10
2022-12-29T05:28:16.483Z,77.35
2022-12-29T05:30:59.035Z,77.81
2022-12-29T05:33:26.026Z,78.33
2022-12-29T05:35:52.991Z,77.81
2022-12-29T05:38:20.903Z,77.91
2022-12-29T05:40:47.831Z,77.41
2022-12-29T05:43:34.879Z,78.23
2022-12-29T05:46:15.425Z,78.37
2022-12-29T05:48:50.475Z,77.96
2022-12-29T05:52:20.577Z,77.73
2022-12-29T05:55:06.795Z,78.56
2022-12-29T05:57:35.864Z,78.16
2022-12-29T06:00:11.284Z,78.10
2022-12-29T06:02:47.208Z,78.37
2022-12-29T06:05:16.035Z,78.36
2022-12-29T06:07:43.311Z,78.83
2022-12-29T06:10:10.386Z,79.00
2022-12-29T06:12:45.490Z,77.77
2022-12-29T06:15:12.643Z,77.45
2022-12-29T06:17:41.793Z,77.50
2022-12-29T06:20:10.803Z,77.10
2022-12-29T06:22:38.715Z,77.21
2022-12-29T06:25:06.604Z,77.56
2022-12-29T06:27:35.148Z,77.47
2022-12-29T06:30:02.261Z,77.98
2022-12-29T06:32:29.447Z,77.60
2022-12-29T06:35:01.551Z,77.34
2022-12-29T06:37:28.671Z,76.89
2022-12-29T06:39:55.690Z,76.84
2022-12-29T06:42:26.733Z,77.81
2022-12-29T06:45:19.499Z,77.06
2022-12-29T06:47:46.388Z,77.18
2022-12-29T06:50:13.303Z,76.48
2022-12-29T06:52:40.237Z,76.32
2022-12-29T06:55:07.565Z,76.41
2022-12-29T06:57:34.659Z,77.06
2022-12-29T07:00:01.589Z,77.00
2022-12-29T07:02:28.586Z,76.88
2022-12-29T07:04:55.555Z,77.08
2022-12-29T07:07:22.459Z,76.38
2022-12-29T07:09:49.379Z,75.59
2022-12-29T07:12:16.365Z,75.93
2022-12-29T07:14:44.331Z,76.14
2022-12-29T07:17:11.513Z,75.35
2022-12-29T07:19:38.539Z,75.48
2022-12-29T07:22:05.504Z,75.28
2022-12-29T07:24:32.475Z,74.78
2022-12-29T07:26:59.465Z,75.47
2022-12-29T07:29:26.311Z,74.52
2022-12-29T07:31:53.617Z,74.97
2022-12-29T07:34:20.643Z,75.35
2022-12-29T07:36:47.947Z,74.93
2022-12-29T07:39:14.895Z,74.03
2022-12-29T07:41:41.762Z,73.12
2022-12-29T07:44:12.179Z,72.66
2022-12-29T07:47:05.587Z,73.22
2022-12-29T07:49:32.503Z,73.91
2022-12-29T07:51:59.519Z,74.10
2022-12-29T07:54:26.761Z,72.70
2022-12-29T07:56:53.768Z,72.78
2022-12-29T07:59:20.895Z,72.70
2022-12-29T08:01:48.855Z,72.19
2022-12-29T08:04:15.957Z,71.61
2022-12-29T08:06:42.938Z,70.40
2022-12-29T08:09:15.106Z,69.78
2022-12-29T08:11:46.643Z,69.12
2022-12-29T08:14:13.508Z,69.57
2022-12-29T08:16:40.483Z,68.98
2022-12-29T08:19:07.397Z,69.47
2022-12-29T08:21:34.297Z,69.98
2022-12-29T08:24:01.216Z,70.00
2022-12-29T08:26:28.295Z,68.00
2022-12-29T08:28:56.823Z,68.17
2022-12-29T08:31:25.188Z,67.59
2022-12-29T08:33:52.717Z,66.79
2022-12-29T08:36:19.651Z,66.76
2022-12-29T08:38:46.551Z,67.20
2022-12-29T08:41:13.769Z,67.42
2022-12-29T08:43:40.716Z,66.99
2022-12-29T08:46:07.769Z,65.96
2022-12-29T08:48:34.718Z,66.32
2022-12-29T08:51:01.786Z,66.71
2022-12-29T08:53:28.759Z,66.27
2022-12-29T08:56:03.967Z,66.83
2022-12-29T08:58:38.975Z,66.92
2022-12-29T09:01:06.029Z,67.24
2022-12-29T09:06:20.755Z,65.56
2022-12-29T09:08:47.669Z,64.80
2022-12-29T09:11:18.668Z,64.65
2022-12-29T09:13:46.400Z,65.51
2022-12-29T09:16:13.804Z,63.50
2022-12-29T09:18:41.012Z,62.54
2022-12-29T09:21:08.274Z,62.45
2022-12-29T09:23:35.838Z,61.29
2022-12-29T09:26:03.424Z,61.51
2022-12-29T09:28:30.783Z,61.73
2022-12-29T09:30:58.797Z,61.95
2022-12-29T09:33:26.288Z,61.61
2022-12-29T09:35:55.918Z,61.98
2022-12-29T09:38:23.879Z,60.56
2022-12-29T09:41:14.495Z,59.46
2022-12-29T09:43:54.016Z,59.71
2022-12-29T10:17:34.161Z,62.04
2022-12-29T10:20:12.920Z,62.14
2022-12-29T10:23:00.047Z,61.19
2022-12-29T10:25:32.988Z,60.27
2022-12-29T10:28:05.606Z,60.30
2022-12-29T10:30:35.614Z,60.35
2022-12-29T10:33:17.589Z,58.59
2022-12-29T10:35:45.226Z,59.50
2022-12-29T10:38:28.805Z,59.16
2022-12-29T10:41:05.368Z,57.44
2022-12-29T10:43:35.840Z,57.73
2022-12-29T10:46:11.316Z,57.22
2022-12-29T10:48:39.058Z,56.66
2022-12-29T10:51:09.524Z,56.92
2022-12-29T10:53:47.369Z,58.12
2022-12-29T10:56:19.995Z,57.60
2022-12-29T10:58:49.952Z,57.25
2022-12-29T11:01:18.664Z,56.89
2022-12-29T11:04:06.969Z,56.99
2022-12-29T11:06:35.127Z,55.75
2022-12-29T11:09:47.691Z,55.89
2022-12-29T11:12:25.853Z,56.84
2022-12-29T11:15:09.745Z,56.86
2022-12-29T11:17:52.036Z,56.65
2022-12-29T11:20:36.073Z,56.00
2022-12-29T11:23:05.068Z,56.33
2022-12-29T11:25:32.389Z,57.21
2022-12-29T11:28:16.308Z,60.54
2022-12-29T11:30:44.189Z,58.17
2022-12-29T11:33:11.308Z,57.94
2022-12-29T11:35:43.451Z,57.16
2022-12-29T11:38:26.843Z,57.08
2022-12-29T11:40:53.917Z,57.46
2022-12-29T11:43:34.634Z,57.18
2022-12-29T11:46:04.743Z,57.51
2022-12-29T11:48:42.345Z,58.07
2022-12-29T11:51:10.921Z,57.35
2022-12-29T11:53:46.947Z,56.45
2022-12-29T11:56:21.239Z,57.23
2022-12-29T11:58:50.547Z,57.77
2022-12-29T12:01:26.523Z,57.14
2022-12-29T12:04:16.432Z,57.25
2022-12-29T12:06:52.423Z,57.79
2022-12-29T12:09:44.886Z,56.92
2022-12-29T12:12:38.139Z,57.13
2022-12-29T12:15:05.894Z,57.85
2022-12-29T12:17:50.824Z,56.85
2022-12-29T12:20:43.922Z,56.93
2022-12-29T12:23:32.548Z,57.41
2022-12-29T12:26:20.356Z,56.52
2022-12-29T12:28:51.289Z,56.71
2022-12-29T12:31:29.092Z,56.97
2022-12-29T12:34:02.362Z,57.43
2022-12-29T12:36:44.678Z,58.33
2022-12-29T12:39:40.564Z,57.74
2022-12-29T12:42:15.319Z,56.66
2022-12-29T12:44:57.370Z,57.05
2022-12-29T12:47:48.595Z,57.33
2022-12-29T12:50:50.770Z,57.30
2022-12-29T12:53:50.502Z,57.34
2022-12-29T12:56:32.712Z,57.23
2022-12-29T12:59:38.539Z,56.65
2022-12-29T13:02:17.152Z,56.58
2022-12-29T13:05:10.379Z,56.64
2022-12-29T13:07:56.111Z,56.92
2022-12-29T13:10:54.315Z,56.81
2022-12-29T13:13:58.796Z,57.23
2022-12-29T13:16:40.662Z,57.55
2022-12-29T13:19:21.029Z,56.54
2022-12-29T13:22:08.548Z,57.00
2022-12-29T13:24:53.925Z,56.23
2022-12-29T13:27:40.158Z,57.03
2022-12-29T13:30:11.691Z,57.67
2022-12-29T13:32:57.016Z,57.98
2022-12-29T13:35:35.544Z,59.22
2022-12-29T13:38:12.281Z,60.14
2022-12-29T13:40:45.986Z,60.93
2022-12-29T13:43:15.751Z,61.94
2022-12-29T13:45:45.904Z,62.86
2022-12-29T13:48:24.824Z,63.38
2022-12-29T13:50:58.577Z,64.00
2022-12-29T13:53:35.667Z,63.34
2022-12-29T13:56:22.061Z,64.37
2022-12-29T13:58:59.013Z,65.08
2022-12-29T14:01:35.841Z,65.20
2022-12-29T14:04:13.684Z,65.76
2022-12-29T14:06:44.034Z,66.74
2022-12-29T14:09:48.276Z,66.29
2022-12-29T14:12:38.315Z,65.77
2022-12-29T14:15:11.136Z,65.86
2022-12-29T14:17:44.894Z,65.60
2022-12-29T14:20:23.617Z,66.06
2022-12-29T14:23:01.192Z,65.88
2022-12-29T14:26:01.814Z,65.24
2022-12-29T14:28:33.005Z,65.90
2022-12-29T14:31:20.790Z,65.38
2022-12-29T14:34:12.539Z,65.27
2022-12-29T14:36:39.575Z,65.62
2022-12-29T14:39:25.702Z,69.14
2022-12-29T14:42:02.827Z,68.66
2022-12-29T14:44:30.004Z,67.77
2022-12-29T14:46:59.485Z,67.86
2022-12-29T14:49:32.552Z,68.58
2022-12-29T14:52:20.042Z,70.25
2022-12-29T14:54:51.183Z,71.35
2022-12-29T14:57:30.073Z,69.44
2022-12-29T15:00:08.103Z,70.77
2022-12-29T15:02:41.175Z,70.18
2022-12-29T15:05:26.270Z,69.07
2022-12-29T15:07:55.166Z,69.60
2022-12-29T15:10:24.604Z,68.74
2022-12-29T15:12:55.132Z,68.76
2022-12-29T15:15:28.031Z,68.55
2022-12-29T15:17:55.196Z,68.32
2022-12-29T15:20:30.875Z,69.84
2022-12-29T15:23:03.311Z,68.88
2022-12-29T15:25:32.236Z,69.82
2022-12-29T15:28:05.639Z,70.29
2022-12-29T15:30:32.662Z,69.45
2022-12-29T15:32:59.761Z,69.32
2022-12-29T15:35:29.719Z,69.63
2022-12-29T15:37:56.767Z,70.76
2022-12-29T15:40:33.882Z,70.42
2022-12-29T15:43:24.648Z,70.20
2022-12-29T15:45:52.918Z,70.09
2022-12-29T15:48:23.836Z,70.66
2022-12-29T15:50:52.054Z,70.67
2022-12-29T15:53:33.082Z,70.31
2022-12-29T15:56:09.785Z,70.03
2022-12-29T15:59:02.731Z,71.35
2022-12-29T16:01:36.030Z,71.37
2022-12-29T16:04:09.411Z,70.59
2022-12-29T16:06:46.229Z,71.14
2022-12-29T16:09:18.845Z,71.36
2022-12-29T16:11:54.609Z,71.65
2022-12-29T16:14:48.498Z,70.57
2022-12-29T16:17:22.951Z,71.01
2022-12-29T16:19:56.786Z,70.64
2022-12-29T16:22:33.847Z,70.48
2022-12-29T16:25:13.097Z,70.45
2022-12-29T16:27:43.451Z,70.60
2022-12-29T16:30:34.200Z,70.75
2022-12-29T16:33:04.031Z,71.16
2022-12-29T16:35:45.772Z,70.32
2022-12-29T16:38:22.733Z,70.82
2022-12-29T16:40:54.281Z,71.33
2022-12-29T16:43:26.976Z,71.12
2022-12-29T16:45:54.483Z,71.61
2022-12-29T16:48:26.085Z,71.57
2022-12-29T16:51:01.740Z,72.46
2022-12-29T16:53:41.071Z,72.53
2022-12-29T16:56:18.101Z,72.15
2022-12-29T16:59:06.702Z,71.09
2022-12-29T17:01:39.750Z,70.82
2022-12-29T17:04:12.215Z,71.33
2022-12-29T17:06:39.741Z,71.07
2022-12-29T17:09:20.488Z,71.51
2022-12-29T17:12:01.534Z,71.98
2022-12-29T17:14:38.009Z,71.88
2022-12-29T17:17:12.431Z,72.10
2022-12-29T17:19:39.838Z,71.82
2022-12-29T17:22:27.834Z,71.82
2022-12-29T17:24:56.985Z,71.36
2022-12-29T17:27:28.477Z,71.33
2022-12-29T17:29:59.762Z,71.55
2022-12-29T17:32:27.160Z,71.56
2022-12-29T17:34:54.130Z,71.55
2022-12-29T17:37:24.092Z,72.04
2022-12-29T17:39:51.831Z,71.94
2022-12-29T17:42:20.333Z,72.09
2022-12-29T17:44:47.436Z,71.29
2022-12-29T17:47:16.046Z,71.22
2022-12-29T17:49:46.446Z,71.50
2022-12-29T17:52:16.143Z,72.11
2022-12-29T17:54:48.023Z,72.32
2022-12-29T17:57:17.083Z,72.41
2022-12-29T17:59:44.131Z,71.66
2022-12-29T18:02:32.059Z,72.63
2022-12-29T18:04:59.884Z,72.70
2022-12-29T18:07:35.432Z,71.66
2022-12-29T18:10:03.069Z,71.44
2022-12-29T18:12:40.556Z,71.66
2022-12-29T18:15:24.127Z,71.64
2022-12-29T18:18:02.389Z,71.47
2022-12-29T18:20:33.409Z,71.25
2022-12-29T18:23:00.507Z,71.25
2022-12-29T18:25:51.565Z,71.18
2022-12-29T18:28:18.735Z,71.18
2022-12-29T18:30:46.274Z,71.59
2022-12-29T18:33:22.530Z,70.65
2022-12-29T18:36:00.152Z,71.04
2022-12-29T18:38:27.820Z,70.89
2022-12-29T18:40:55.648Z,70.74
2022-12-29T18:43:23.380Z,71.41
2022-12-29T18:45:50.692Z,71.10
2022-12-29T18:48:19.452Z,71.61
2022-12-29T18:50:49.186Z,71.27
2022-12-29T18:53:22.198Z,71.38
2022-12-29T18:55:49.474Z,71.95
2022-12-29T18:58:16.593Z,72.25
2022-12-29T19:00:43.799Z,71.42
2022-12-29T19:03:15.499Z,71.08
2022-12-29T19:05:44.413Z,70.95
2022-12-29T19:08:12.282Z,71.69
2022-12-29T19:10:40.739Z,72.23
2022-12-29T19:13:11.505Z,72.83
2022-12-29T19:15:38.419Z,73.11
2022-12-29T19:18:42.569Z,73.53
2022-12-29T19:20:59.344Z,73.84
2022-12-29T19:23:27.355Z,73.91
2022-12-29T19:25:55.491Z,73.17
2022-12-29T19:28:25.356Z,73.21
2022-12-29T19:30:56.055Z,72.81
2022-12-29T19:33:24.467Z,73.08
2022-12-29T19:35:52.125Z,73.28
2022-12-29T19:38:19.751Z,73.00
2022-12-29T19:40:49.380Z,73.08
2022-12-29T19:43:17.175Z,73.39
2022-12-29T19:45:45.152Z,71.89
2022-12-29T19:48:17.689Z,72.66
2022-12-29T19:50:45.837Z,72.43
2022-12-29T19:53:13.484Z,72.55
2022-12-29T19:55:47.384Z,73.30
2022-12-29T19:58:15.029Z,72.85
2022-12-29T20:00:43.600Z,73.55
2022-12-29T20:03:11.594Z,72.93
2022-12-29T20:05:39.510Z,73.28
2022-12-29T20:08:06.861Z,72.32
2022-12-29T20:10:33.743Z,71.43
2022-12-29T20:13:00.842Z,72.44
2022-12-29T20:15:27.771Z,72.89
2022-12-29T20:20:42.736Z,74.22
2022-12-29T20:23:09.775Z,73.58
2022-12-29T20:25:45.581Z,74.17
2022-12-29T20:28:13.348Z,73.63
2022-12-29T20:30:40.380Z,74.15
2022-12-29T20:33:08.712Z,75.65
2022-12-29T20:35:36.971Z,75.07
2022-12-29T20:38:04.587Z,74.40
2022-12-29T20:40:31.579Z,73.41
2022-12-29T20:42:58.492Z,74.17
2022-12-29T20:45:25.548Z,73.58
2022-12-29T20:47:52.555Z,73.74
2022-12-29T20:50:19.461Z,73.96
2022-12-29T20:52:47.118Z,74.70
2022-12-29T20:55:14.650Z,75.01
2022-12-29T21:00:32.823Z,75.41
2022-12-29T21:03:00.192Z,74.85
2022-12-29T21:05:28.820Z,74.74
2022-12-29T21:07:59.835Z,74.70
2022-12-29T21:10:26.846Z,75.29
2022-12-29T21:12:53.984Z,74.19
2022-12-29T21:15:21.021Z,75.94
2022-12-29T21:17:48.263Z,77.46
2022-12-29T21:20:31.948Z,76.49
2022-12-29T21:23:00.948Z,75.54
2022-12-29T21:25:38.967Z,76.45
2022-12-29T21:28:07.113Z,75.45
2022-12-29T21:30:35.192Z,75.21
2022-12-29T21:33:02.176Z,75.44
2022-12-29T21:35:29.185Z,76.67
2022-12-29T21:37:56.708Z,76.50
2022-12-29T21:40:23.718Z,77.41
2022-12-29T21:42:50.812Z,76.11
2022-12-29T21:45:26.656Z,76.23
2022-12-29T21:48:26.528Z,76.09
2022-12-29T21:51:14.916Z,76.84
2022-12-29T21:53:44.260Z,76.56
2022-12-29T21:56:15.276Z,75.45
2022-12-29T21:59:03.425Z,74.32
2022-12-29T22:01:51.475Z,74.96
2022-12-29T22:04:38.805Z,78.16
2022-12-29T22:07:24.729Z,77.25
2022-12-29T22:10:10.824Z,76.93
2022-12-29T22:12:56.413Z,79.02
2022-12-29T22:15:23.829Z,77.69
2022-12-29T22:17:53.920Z,76.65
2022-12-29T22:20:24.785Z,76.40
2022-12-29T22:22:52.107Z,75.24
2022-12-29T22:25:19.476Z,75.13
2022-12-29T22:27:46.624Z,74.70
2022-12-29T22:30:14.129Z,74.96
2022-12-29T22:32:41.342Z,74.91
2022-12-29T22:35:10.031Z,74.09
2022-12-29T22:37:38.412Z,74.72
2022-12-29T22:40:06.152Z,74.42
2022-12-29T22:42:33.471Z,74.47
2022-12-29T22:45:00.456Z,74.04
2022-12-29T22:47:27.542Z,73.28
2022-12-29T22:49:54.431Z,73.22
2022-12-29T22:52:21.300Z,73.17
2022-12-29T22:54:48.240Z,73.03
2022-12-29T22:57:15.187Z,73.90
2022-12-29T22:59:42.254Z,73.03
2022-12-29T23:02:09.279Z,75.93
2022-12-29T23:07:24.358Z,74.82
2022-12-29T23:09:51.365Z,74.89
2022-12-29T23:12:18.391Z,74.69
2022-12-29T23:14:45.317Z,76.36
2022-12-29T23:17:12.240Z,76.37
2022-12-29T23:19:39.114Z,76.25
2022-12-29T23:22:06.092Z,77.23
2022-12-29T23:24:32.975Z,76.87
2022-12-29T23:26:59.842Z,77.84
2022-12-29T23:29:26.780Z,78.11
2022-12-29T23:31:53.694Z,77.68
2022-12-29T23:34:20.680Z,77.21
2022-12-29T23:36:47.757Z,76.11
2022-12-29T23:39:23.410Z,75.48
2022-12-29T23:41:51.196Z,76.57
2022-12-29T23:44:18.120Z,76.16
2022-12-29T23:46:45.092Z,75.29
2022-12-29T23:49:12.077Z,75.14
2022-12-29T23:51:38.975Z,74.69
2022-12-29T23:54:06.025Z,76.21
2022-12-29T23:56:33.667Z,75.76
2022-12-29T23:59:04.047Z,75.24
